sensor_id;sensor_type;location;lat;lon;timestamp;temperature;humidity
42617;DHT22;28250;52.320;0.360;2022-08-01T00:00:26;14.60;99.90
42617;DHT22;28250;52.320;0.360;2022-08-01T00:02:54;14.70;99.90
42617;DHT22;28250;52.320;0.360;2022-08-01T00:05:24;14.70;99.90
42617;DHT22;28250;52.320;0.360;2022-08-01T00:07:52;14.70;99.90
42617;DHT22;28250;52.320;0.360;2022-08-01T00:10:20;14.70;99.90
42617;DHT22;28250;52.320;0.360;2022-08-01T00:12:47;14.70;99.90
42617;DHT22;28250;52.320;0.360;2022-08-01T00:15:16;14.70;99.90
42617;DHT22;28250;52.320;0.360;2022-08-01T00:17:44;14.80;99.90
42617;DHT22;28250;52.320;0.360;2022-08-01T00:20:12;14.80;99.90
42617;DHT22;28250;52.320;0.360;2022-08-01T00:22:40;14.90;99.90
42617;DHT22;28250;52.320;0.360;2022-08-01T00:25:08;14.90;99.90
42617;DHT22;28250;52.320;0.360;2022-08-01T00:27:36;14.90;99.90
42617;DHT22;28250;52.320;0.360;2022-08-01T00:30:05;14.90;99.90
42617;DHT22;28250;52.320;0.360;2022-08-01T00:32:32;14.90;99.90
42617;DHT22;28250;52.320;0.360;2022-08-01T00:34:59;14.80;99.90
42617;DHT22;28250;52.320;0.360;2022-08-01T00:37:26;14.80;99.90
42617;DHT22;28250;52.320;0.360;2022-08-01T00:39:52;14.90;99.90
42617;DHT22;28250;52.320;0.360;2022-08-01T00:42:19;14.90;99.90
42617;DHT22;28250;52.320;0.360;2022-08-01T00:44:47;14.90;99.90
42617;DHT22;28250;52.320;0.360;2022-08-01T00:47:15;14.80;99.90
42617;DHT22;28250;52.320;0.360;2022-08-01T00:49:44;14.80;99.90
42617;DHT22;28250;52.320;0.360;2022-08-01T00:52:11;14.80;99.90
42617;DHT22;28250;52.320;0.360;2022-08-01T00:54:40;14.90;99.90
42617;DHT22;28250;52.320;0.360;2022-08-01T00:57:13;14.90;99.90
42617;DHT22;28250;52.320;0.360;2022-08-01T00:59:41;14.90;99.90
42617;DHT22;28250;52.320;0.360;2022-08-01T01:02:10;14.90;99.90
42617;DHT22;28250;52.320;0.360;2022-08-01T01:04:37;14.90;99.90
42617;DHT22;28250;52.320;0.360;2022-08-01T01:07:08;14.90;99.90
42617;DHT22;28250;52.320;0.360;2022-08-01T01:12:56;14.80;99.90
42617;DHT22;28250;52.320;0.360;2022-08-01T01:15:30;14.80;99.90
42617;DHT22;28250;52.320;0.360;2022-08-01T01:18:34;15.00;99.90
42617;DHT22;28250;52.320;0.360;2022-08-01T01:27:51;15.00;99.90
42617;DHT22;28250;52.320;0.360;2022-08-01T01:29:50;15.00;99.90
42617;DHT22;28250;52.320;0.360;2022-08-01T01:32:25;15.00;99.90
42617;DHT22;28250;52.320;0.360;2022-08-01T01:35:06;14.90;99.90
42617;DHT22;28250;52.320;0.360;2022-08-01T01:37:38;14.90;99.90
42617;DHT22;28250;52.320;0.360;2022-08-01T01:40:08;14.90;99.90
42617;DHT22;28250;52.320;0.360;2022-08-01T01:42:36;14.80;99.90
42617;DHT22;28250;52.320;0.360;2022-08-01T01:45:05;14.80;99.90
42617;DHT22;28250;52.320;0.360;2022-08-01T01:47:33;14.70;99.90
42617;DHT22;28250;52.320;0.360;2022-08-01T01:50:03;14.70;99.90
42617;DHT22;28250;52.320;0.360;2022-08-01T01:52:32;14.60;99.90
42617;DHT22;28250;52.320;0.360;2022-08-01T01:54:59;14.50;99.90
42617;DHT22;28250;52.320;0.360;2022-08-01T01:57:30;14.50;99.90
42617;DHT22;28250;52.320;0.360;2022-08-01T01:59:57;14.60;99.90
42617;DHT22;28250;52.320;0.360;2022-08-01T02:02:27;14.50;99.90
42617;DHT22;28250;52.320;0.360;2022-08-01T02:04:56;14.50;99.90
42617;DHT22;28250;52.320;0.360;2022-08-01T02:07:25;14.40;99.90
42617;DHT22;28250;52.320;0.360;2022-08-01T02:09:54;14.40;99.90
42617;DHT22;28250;52.320;0.360;2022-08-01T02:12:23;14.30;99.90
42617;DHT22;28250;52.320;0.360;2022-08-01T02:14:53;14.20;99.90
42617;DHT22;28250;52.320;0.360;2022-08-01T02:17:21;14.20;99.90
42617;DHT22;28250;52.320;0.360;2022-08-01T02:19:49;14.20;99.90
42617;DHT22;28250;52.320;0.360;2022-08-01T02:22:21;14.20;99.90
42617;DHT22;28250;52.320;0.360;2022-08-01T02:25:03;14.20;99.90
42617;DHT22;28250;52.320;0.360;2022-08-01T02:28:09;14.40;99.90
42617;DHT22;28250;52.320;0.360;2022-08-01T02:30:46;14.20;99.90
42617;DHT22;28250;52.320;0.360;2022-08-01T02:33:22;14.30;99.90
42617;DHT22;28250;52.320;0.360;2022-08-01T02:35:56;14.40;99.90
42617;DHT22;28250;52.320;0.360;2022-08-01T02:38:30;14.50;99.90
42617;DHT22;28250;52.320;0.360;2022-08-01T02:41:10;14.40;99.90
42617;DHT22;28250;52.320;0.360;2022-08-01T02:43:43;14.50;99.90
42617;DHT22;28250;52.320;0.360;2022-08-01T02:46:24;14.50;99.90
42617;DHT22;28250;52.320;0.360;2022-08-01T02:48:58;14.50;99.90
42617;DHT22;28250;52.320;0.360;2022-08-01T02:51:30;14.40;99.90
42617;DHT22;28250;52.320;0.360;2022-08-01T02:53:59;14.40;99.90
42617;DHT22;28250;52.320;0.360;2022-08-01T02:56:29;14.30;99.90
42617;DHT22;28250;52.320;0.360;2022-08-01T02:59:07;14.20;99.90
42617;DHT22;28250;52.320;0.360;2022-08-01T03:01:39;14.10;99.90
42617;DHT22;28250;52.320;0.360;2022-08-01T03:04:07;14.00;99.90
42617;DHT22;28250;52.320;0.360;2022-08-01T03:06:36;14.00;99.90
42617;DHT22;28250;52.320;0.360;2022-08-01T03:09:04;14.00;99.90
42617;DHT22;28250;52.320;0.360;2022-08-01T03:11:34;13.90;99.90
42617;DHT22;28250;52.320;0.360;2022-08-01T03:14:09;14.00;99.90
42617;DHT22;28250;52.320;0.360;2022-08-01T03:16:38;13.90;99.90
42617;DHT22;28250;52.320;0.360;2022-08-01T03:19:11;13.90;99.90
42617;DHT22;28250;52.320;0.360;2022-08-01T03:21:39;13.90;99.90
42617;DHT22;28250;52.320;0.360;2022-08-01T03:24:08;14.00;99.90
42617;DHT22;28250;52.320;0.360;2022-08-01T03:26:36;14.00;99.90
42617;DHT22;28250;52.320;0.360;2022-08-01T03:29:08;14.00;99.90
42617;DHT22;28250;52.320;0.360;2022-08-01T03:31:39;14.10;99.90
42617;DHT22;28250;52.320;0.360;2022-08-01T03:34:09;14.10;99.90
42617;DHT22;28250;52.320;0.360;2022-08-01T03:37:04;14.10;99.90
42617;DHT22;28250;52.320;0.360;2022-08-01T03:39:39;14.10;99.90
42617;DHT22;28250;52.320;0.360;2022-08-01T03:42:17;14.10;99.90
42617;DHT22;28250;52.320;0.360;2022-08-01T03:44:55;14.20;99.90
42617;DHT22;28250;52.320;0.360;2022-08-01T03:47:46;14.10;99.90
42617;DHT22;28250;52.320;0.360;2022-08-01T03:50:36;13.90;99.90
42617;DHT22;28250;52.320;0.360;2022-08-01T03:53:06;13.90;99.90
42617;DHT22;28250;52.320;0.360;2022-08-01T03:55:34;13.90;99.90
42617;DHT22;28250;52.320;0.360;2022-08-01T03:58:03;13.80;99.90
42617;DHT22;28250;52.320;0.360;2022-08-01T04:00:32;14.00;99.90
42617;DHT22;28250;52.320;0.360;2022-08-01T04:03:00;13.90;99.90
42617;DHT22;28250;52.320;0.360;2022-08-01T04:05:27;14.00;99.90
42617;DHT22;28250;52.320;0.360;2022-08-01T04:07:53;14.10;99.90
42617;DHT22;28250;52.320;0.360;2022-08-01T04:10:23;14.10;99.90
42617;DHT22;28250;52.320;0.360;2022-08-01T04:12:51;14.10;99.90
42617;DHT22;28250;52.320;0.360;2022-08-01T04:15:18;14.00;99.90
42617;DHT22;28250;52.320;0.360;2022-08-01T04:17:46;14.00;99.90
42617;DHT22;28250;52.320;0.360;2022-08-01T04:20:14;14.00;99.90
42617;DHT22;28250;52.320;0.360;2022-08-01T04:22:41;14.10;99.90
42617;DHT22;28250;52.320;0.360;2022-08-01T04:25:17;14.20;99.90
42617;DHT22;28250;52.320;0.360;2022-08-01T04:27:53;14.20;99.90
42617;DHT22;28250;52.320;0.360;2022-08-01T04:30:27;14.20;99.90
42617;DHT22;28250;52.320;0.360;2022-08-01T04:32:59;14.30;99.90
42617;DHT22;28250;52.320;0.360;2022-08-01T04:35:28;14.50;99.90
42617;DHT22;28250;52.320;0.360;2022-08-01T04:37:56;14.40;99.90
42617;DHT22;28250;52.320;0.360;2022-08-01T04:40:25;14.40;99.90
42617;DHT22;28250;52.320;0.360;2022-08-01T04:42:53;14.50;99.90
42617;DHT22;28250;52.320;0.360;2022-08-01T04:45:21;14.50;99.90
42617;DHT22;28250;52.320;0.360;2022-08-01T04:47:51;14.60;99.90
42617;DHT22;28250;52.320;0.360;2022-08-01T04:50:19;14.70;99.90
42617;DHT22;28250;52.320;0.360;2022-08-01T04:52:49;14.50;99.90
42617;DHT22;28250;52.320;0.360;2022-08-01T04:55:18;14.70;99.90
42617;DHT22;28250;52.320;0.360;2022-08-01T04:57:46;14.70;99.90
42617;DHT22;28250;52.320;0.360;2022-08-01T05:00:14;14.80;99.90
42617;DHT22;28250;52.320;0.360;2022-08-01T05:02:43;14.80;99.90
42617;DHT22;28250;52.320;0.360;2022-08-01T05:05:11;14.80;99.90
42617;DHT22;28250;52.320;0.360;2022-08-01T05:07:38;15.00;99.90
42617;DHT22;28250;52.320;0.360;2022-08-01T05:10:06;15.10;99.90
42617;DHT22;28250;52.320;0.360;2022-08-01T05:12:34;15.20;99.90
42617;DHT22;28250;52.320;0.360;2022-08-01T05:15:05;15.10;99.90
42617;DHT22;28250;52.320;0.360;2022-08-01T05:17:34;15.20;99.90
42617;DHT22;28250;52.320;0.360;2022-08-01T05:20:00;15.20;99.90
42617;DHT22;28250;52.320;0.360;2022-08-01T05:22:27;15.30;99.90
42617;DHT22;28250;52.320;0.360;2022-08-01T05:24:54;15.30;99.90
42617;DHT22;28250;52.320;0.360;2022-08-01T05:27:21;15.50;99.90
42617;DHT22;28250;52.320;0.360;2022-08-01T05:29:47;15.50;99.90
42617;DHT22;28250;52.320;0.360;2022-08-01T05:32:14;15.50;99.90
42617;DHT22;28250;52.320;0.360;2022-08-01T05:34:41;15.60;99.90
42617;DHT22;28250;52.320;0.360;2022-08-01T05:37:09;15.60;99.90
42617;DHT22;28250;52.320;0.360;2022-08-01T05:39:35;15.70;99.90
42617;DHT22;28250;52.320;0.360;2022-08-01T05:42:02;15.80;99.90
42617;DHT22;28250;52.320;0.360;2022-08-01T05:44:29;15.90;99.90
42617;DHT22;28250;52.320;0.360;2022-08-01T05:46:56;16.00;99.90
42617;DHT22;28250;52.320;0.360;2022-08-01T05:49:23;15.90;99.90
42617;DHT22;28250;52.320;0.360;2022-08-01T05:51:50;16.10;99.90
42617;DHT22;28250;52.320;0.360;2022-08-01T05:54:17;16.20;99.90
42617;DHT22;28250;52.320;0.360;2022-08-01T05:56:44;16.30;99.90
42617;DHT22;28250;52.320;0.360;2022-08-01T05:59:11;16.30;99.90
42617;DHT22;28250;52.320;0.360;2022-08-01T06:01:38;16.30;99.90
42617;DHT22;28250;52.320;0.360;2022-08-01T06:04:05;16.30;99.90
42617;DHT22;28250;52.320;0.360;2022-08-01T06:06:33;16.50;99.90
42617;DHT22;28250;52.320;0.360;2022-08-01T06:09:00;16.50;99.90
42617;DHT22;28250;52.320;0.360;2022-08-01T06:11:27;16.50;99.90
42617;DHT22;28250;52.320;0.360;2022-08-01T06:13:54;16.40;99.90
42617;DHT22;28250;52.320;0.360;2022-08-01T06:16:21;16.40;99.90
42617;DHT22;28250;52.320;0.360;2022-08-01T06:18:48;16.50;99.90
42617;DHT22;28250;52.320;0.360;2022-08-01T06:21:15;16.50;99.90
42617;DHT22;28250;52.320;0.360;2022-08-01T06:23:42;16.60;99.90
42617;DHT22;28250;52.320;0.360;2022-08-01T06:26:09;16.70;99.90
42617;DHT22;28250;52.320;0.360;2022-08-01T06:28:37;16.80;99.90
42617;DHT22;28250;52.320;0.360;2022-08-01T06:31:05;16.90;99.90
42617;DHT22;28250;52.320;0.360;2022-08-01T06:33:32;17.00;99.90
42617;DHT22;28250;52.320;0.360;2022-08-01T06:36:00;16.90;99.90
42617;DHT22;28250;52.320;0.360;2022-08-01T06:38:26;16.90;99.90
42617;DHT22;28250;52.320;0.360;2022-08-01T06:40:53;17.10;99.90
42617;DHT22;28250;52.320;0.360;2022-08-01T06:43:20;17.10;99.90
42617;DHT22;28250;52.320;0.360;2022-08-01T06:45:47;17.20;99.90
42617;DHT22;28250;52.320;0.360;2022-08-01T06:48:14;17.30;99.90
42617;DHT22;28250;52.320;0.360;2022-08-01T06:50:41;17.30;99.90
42617;DHT22;28250;52.320;0.360;2022-08-01T06:53:08;17.30;99.90
42617;DHT22;28250;52.320;0.360;2022-08-01T06:55:36;17.30;99.90
42617;DHT22;28250;52.320;0.360;2022-08-01T06:58:03;17.30;99.90
42617;DHT22;28250;52.320;0.360;2022-08-01T07:00:30;17.40;99.90
42617;DHT22;28250;52.320;0.360;2022-08-01T07:02:58;17.50;99.90
42617;DHT22;28250;52.320;0.360;2022-08-01T07:05:26;17.40;99.90
42617;DHT22;28250;52.320;0.360;2022-08-01T07:07:53;17.60;99.90
42617;DHT22;28250;52.320;0.360;2022-08-01T07:10:22;17.80;99.90
42617;DHT22;28250;52.320;0.360;2022-08-01T07:13:00;18.00;99.90
42617;DHT22;28250;52.320;0.360;2022-08-01T07:15:38;18.10;99.90
42617;DHT22;28250;52.320;0.360;2022-08-01T07:18:19;18.20;99.90
42617;DHT22;28250;52.320;0.360;2022-08-01T07:21:09;18.20;99.90
42617;DHT22;28250;52.320;0.360;2022-08-01T07:23:50;18.30;99.90
42617;DHT22;28250;52.320;0.360;2022-08-01T07:26:26;18.30;99.90
42617;DHT22;28250;52.320;0.360;2022-08-01T07:28:57;18.30;99.90
42617;DHT22;28250;52.320;0.360;2022-08-01T07:31:26;18.50;99.90
42617;DHT22;28250;52.320;0.360;2022-08-01T07:33:59;18.70;99.90
42617;DHT22;28250;52.320;0.360;2022-08-01T07:36:28;18.50;99.90
42617;DHT22;28250;52.320;0.360;2022-08-01T07:39:00;18.50;99.90
42617;DHT22;28250;52.320;0.360;2022-08-01T07:41:27;18.60;99.90
42617;DHT22;28250;52.320;0.360;2022-08-01T07:43:54;18.80;99.90
42617;DHT22;28250;52.320;0.360;2022-08-01T07:46:21;18.90;99.90
42617;DHT22;28250;52.320;0.360;2022-08-01T07:48:48;19.10;99.90
42617;DHT22;28250;52.320;0.360;2022-08-01T07:51:15;19.20;99.90
42617;DHT22;28250;52.320;0.360;2022-08-01T07:53:43;19.10;99.90
42617;DHT22;28250;52.320;0.360;2022-08-01T07:56:11;19.40;99.90
42617;DHT22;28250;52.320;0.360;2022-08-01T07:58:38;19.50;99.90
42617;DHT22;28250;52.320;0.360;2022-08-01T08:01:05;19.40;99.90
42617;DHT22;28250;52.320;0.360;2022-08-01T08:03:32;19.50;99.90
42617;DHT22;28250;52.320;0.360;2022-08-01T08:06:00;19.60;99.90
42617;DHT22;28250;52.320;0.360;2022-08-01T08:08:27;19.60;99.90
42617;DHT22;28250;52.320;0.360;2022-08-01T08:10:54;19.50;99.90
42617;DHT22;28250;52.320;0.360;2022-08-01T08:13:21;19.40;99.90
42617;DHT22;28250;52.320;0.360;2022-08-01T08:15:49;19.40;99.90
42617;DHT22;28250;52.320;0.360;2022-08-01T08:18:22;19.50;99.90
42617;DHT22;28250;52.320;0.360;2022-08-01T08:20:49;19.60;99.90
42617;DHT22;28250;52.320;0.360;2022-08-01T08:23:16;19.80;99.90
42617;DHT22;28250;52.320;0.360;2022-08-01T08:26:02;19.60;99.90
42617;DHT22;28250;52.320;0.360;2022-08-01T08:28:28;19.60;99.90
42617;DHT22;28250;52.320;0.360;2022-08-01T08:30:56;19.60;99.90
42617;DHT22;28250;52.320;0.360;2022-08-01T08:33:24;19.70;99.90
42617;DHT22;28250;52.320;0.360;2022-08-01T08:35:51;19.70;99.90
42617;DHT22;28250;52.320;0.360;2022-08-01T08:38:20;19.60;99.90
42617;DHT22;28250;52.320;0.360;2022-08-01T08:40:48;19.90;99.90
42617;DHT22;28250;52.320;0.360;2022-08-01T08:43:16;20.10;99.90
42617;DHT22;28250;52.320;0.360;2022-08-01T08:45:44;20.30;99.90
42617;DHT22;28250;52.320;0.360;2022-08-01T08:48:13;20.70;99.90
42617;DHT22;28250;52.320;0.360;2022-08-01T08:50:41;21.00;99.90
42617;DHT22;28250;52.320;0.360;2022-08-01T08:53:11;20.90;99.90
42617;DHT22;28250;52.320;0.360;2022-08-01T08:55:41;20.80;99.90
42617;DHT22;28250;52.320;0.360;2022-08-01T08:58:11;20.60;99.90
42617;DHT22;28250;52.320;0.360;2022-08-01T09:00:39;20.70;99.90
42617;DHT22;28250;52.320;0.360;2022-08-01T09:03:06;20.50;99.90
42617;DHT22;28250;52.320;0.360;2022-08-01T09:05:33;20.70;99.90
42617;DHT22;28250;52.320;0.360;2022-08-01T09:08:02;21.10;99.90
42617;DHT22;28250;52.320;0.360;2022-08-01T09:10:32;21.20;99.90
42617;DHT22;28250;52.320;0.360;2022-08-01T09:13:03;21.10;99.90
42617;DHT22;28250;52.320;0.360;2022-08-01T09:15:37;20.90;99.90
42617;DHT22;28250;52.320;0.360;2022-08-01T09:26:17;20.50;99.90
42617;DHT22;28250;52.320;0.360;2022-08-01T09:28:46;20.20;99.90
42617;DHT22;28250;52.320;0.360;2022-08-01T09:31:14;20.50;99.90
42617;DHT22;28250;52.320;0.360;2022-08-01T09:36:18;20.30;99.90
42617;DHT22;28250;52.320;0.360;2022-08-01T09:38:45;20.60;99.90
42617;DHT22;28250;52.320;0.360;2022-08-01T09:41:12;20.60;99.90
42617;DHT22;28250;52.320;0.360;2022-08-01T09:43:39;20.70;99.90
42617;DHT22;28250;52.320;0.360;2022-08-01T09:46:09;20.60;99.90
42617;DHT22;28250;52.320;0.360;2022-08-01T09:48:38;20.50;99.90
42617;DHT22;28250;52.320;0.360;2022-08-01T09:51:05;20.30;99.90
42617;DHT22;28250;52.320;0.360;2022-08-01T09:53:40;20.30;99.90
42617;DHT22;28250;52.320;0.360;2022-08-01T09:56:09;20.60;99.90
42617;DHT22;28250;52.320;0.360;2022-08-01T10:01:23;21.30;99.90
42617;DHT22;28250;52.320;0.360;2022-08-01T10:04:03;21.50;99.90
42617;DHT22;28250;52.320;0.360;2022-08-01T10:06:30;20.80;99.90
42617;DHT22;28250;52.320;0.360;2022-08-01T10:08:57;21.20;99.90
42617;DHT22;28250;52.320;0.360;2022-08-01T10:11:23;21.00;99.90
42617;DHT22;28250;52.320;0.360;2022-08-01T10:13:51;21.30;99.90
42617;DHT22;28250;52.320;0.360;2022-08-01T10:16:18;21.60;99.90
42617;DHT22;28250;52.320;0.360;2022-08-01T10:18:45;21.70;99.90
42617;DHT22;28250;52.320;0.360;2022-08-01T10:21:13;22.10;99.90
42617;DHT22;28250;52.320;0.360;2022-08-01T10:23:40;21.50;99.90
42617;DHT22;28250;52.320;0.360;2022-08-01T10:26:11;22.20;99.90
42617;DHT22;28250;52.320;0.360;2022-08-01T10:28:53;22.10;99.90
42617;DHT22;28250;52.320;0.360;2022-08-01T10:31:21;23.50;99.90
42617;DHT22;28250;52.320;0.360;2022-08-01T10:33:59;23.50;99.90
42617;DHT22;28250;52.320;0.360;2022-08-01T10:36:27;23.90;99.90
42617;DHT22;28250;52.320;0.360;2022-08-01T10:38:55;24.20;99.90
42617;DHT22;28250;52.320;0.360;2022-08-01T10:41:23;24.60;99.90
42617;DHT22;28250;52.320;0.360;2022-08-01T10:43:52;24.60;99.90
42617;DHT22;28250;52.320;0.360;2022-08-01T10:46:20;23.80;99.90
42617;DHT22;28250;52.320;0.360;2022-08-01T10:48:51;24.20;99.90
42617;DHT22;28250;52.320;0.360;2022-08-01T10:51:28;24.50;99.90
42617;DHT22;28250;52.320;0.360;2022-08-01T10:53:54;24.00;99.90
42617;DHT22;28250;52.320;0.360;2022-08-01T10:56:21;24.40;99.90
42617;DHT22;28250;52.320;0.360;2022-08-01T10:58:54;25.40;99.90
42617;DHT22;28250;52.320;0.360;2022-08-01T11:01:36;25.50;99.90
42617;DHT22;28250;52.320;0.360;2022-08-01T11:04:06;25.10;99.90
42617;DHT22;28250;52.320;0.360;2022-08-01T11:06:36;25.20;99.90
42617;DHT22;28250;52.320;0.360;2022-08-01T11:09:05;24.70;99.90
42617;DHT22;28250;52.320;0.360;2022-08-01T11:11:32;24.10;99.90
42617;DHT22;28250;52.320;0.360;2022-08-01T11:14:18;25.50;99.90
42617;DHT22;28250;52.320;0.360;2022-08-01T11:16:45;25.00;99.90
42617;DHT22;28250;52.320;0.360;2022-08-01T11:19:11;25.60;99.90
42617;DHT22;28250;52.320;0.360;2022-08-01T11:30:21;27.80;99.90
42617;DHT22;28250;52.320;0.360;2022-08-01T11:35:23;26.60;99.90
42617;DHT22;28250;52.320;0.360;2022-08-01T11:37:53;26.90;99.90
42617;DHT22;28250;52.320;0.360;2022-08-01T11:40:25;26.80;99.90
42617;DHT22;28250;52.320;0.360;2022-08-01T11:48:26;28.30;99.90
42617;DHT22;28250;52.320;0.360;2022-08-01T11:50:54;26.80;99.90
42617;DHT22;28250;52.320;0.360;2022-08-01T11:53:21;26.10;99.90
42617;DHT22;28250;52.320;0.360;2022-08-01T11:55:49;25.90;99.90
42617;DHT22;28250;52.320;0.360;2022-08-01T11:58:20;25.80;99.90
42617;DHT22;28250;52.320;0.360;2022-08-01T12:00:50;26.20;99.90
42617;DHT22;28250;52.320;0.360;2022-08-01T12:03:23;26.40;99.90
42617;DHT22;28250;52.320;0.360;2022-08-01T12:05:53;25.80;99.90
42617;DHT22;28250;52.320;0.360;2022-08-01T12:10:53;25.60;99.90
42617;DHT22;28250;52.320;0.360;2022-08-01T12:13:20;26.30;99.90
42617;DHT22;28250;52.320;0.360;2022-08-01T12:15:46;26.50;99.90
42617;DHT22;28250;52.320;0.360;2022-08-01T12:18:13;26.20;99.90
42617;DHT22;28250;52.320;0.360;2022-08-01T12:20:41;26.00;99.90
42617;DHT22;28250;52.320;0.360;2022-08-01T12:23:11;25.80;99.90
42617;DHT22;28250;52.320;0.360;2022-08-01T12:25:39;26.00;99.90
42617;DHT22;28250;52.320;0.360;2022-08-01T12:28:07;26.50;99.90
42617;DHT22;28250;52.320;0.360;2022-08-01T12:30:35;26.40;99.90
42617;DHT22;28250;52.320;0.360;2022-08-01T12:33:03;27.20;99.90
42617;DHT22;28250;52.320;0.360;2022-08-01T12:35:31;26.90;99.90
42617;DHT22;28250;52.320;0.360;2022-08-01T12:38:00;26.90;99.90
42617;DHT22;28250;52.320;0.360;2022-08-01T12:40:31;27.20;99.90
42617;DHT22;28250;52.320;0.360;2022-08-01T12:43:00;27.00;99.90
42617;DHT22;28250;52.320;0.360;2022-08-01T12:45:30;26.60;99.90
42617;DHT22;28250;52.320;0.360;2022-08-01T12:48:00;26.40;99.90
42617;DHT22;28250;52.320;0.360;2022-08-01T12:50:28;26.50;99.90
42617;DHT22;28250;52.320;0.360;2022-08-01T12:52:57;26.60;99.90
42617;DHT22;28250;52.320;0.360;2022-08-01T12:55:24;26.40;99.90
42617;DHT22;28250;52.320;0.360;2022-08-01T13:00:39;27.10;99.90
42617;DHT22;28250;52.320;0.360;2022-08-01T13:03:08;26.80;99.90
42617;DHT22;28250;52.320;0.360;2022-08-01T13:08:24;29.00;99.90
42617;DHT22;28250;52.320;0.360;2022-08-01T13:11:00;27.50;99.90
42617;DHT22;28250;52.320;0.360;2022-08-01T13:13:37;26.20;99.90
42617;DHT22;28250;52.320;0.360;2022-08-01T13:16:05;26.50;99.90
42617;DHT22;28250;52.320;0.360;2022-08-01T13:18:33;26.60;99.90
42617;DHT22;28250;52.320;0.360;2022-08-01T13:21:08;27.00;99.90
42617;DHT22;28250;52.320;0.360;2022-08-01T13:23:36;26.90;99.90
42617;DHT22;28250;52.320;0.360;2022-08-01T13:26:03;27.70;99.90
42617;DHT22;28250;52.320;0.360;2022-08-01T13:28:30;26.90;99.90
42617;DHT22;28250;52.320;0.360;2022-08-01T13:30:58;26.70;99.90
42617;DHT22;28250;52.320;0.360;2022-08-01T13:36:14;26.50;99.90
42617;DHT22;28250;52.320;0.360;2022-08-01T13:38:41;26.80;99.90
42617;DHT22;28250;52.320;0.360;2022-08-01T13:41:26;27.40;99.90
42617;DHT22;28250;52.320;0.360;2022-08-01T13:43:53;28.60;99.90
42617;DHT22;28250;52.320;0.360;2022-08-01T13:46:20;28.70;99.90
42617;DHT22;28250;52.320;0.360;2022-08-01T13:48:46;28.10;99.90
42617;DHT22;28250;52.320;0.360;2022-08-01T13:51:13;28.00;99.90
42617;DHT22;28250;52.320;0.360;2022-08-01T13:53:40;28.00;99.90
42617;DHT22;28250;52.320;0.360;2022-08-01T13:56:07;28.20;99.90
42617;DHT22;28250;52.320;0.360;2022-08-01T13:58:35;28.90;99.90
42617;DHT22;28250;52.320;0.360;2022-08-01T14:01:02;29.60;99.90
42617;DHT22;28250;52.320;0.360;2022-08-01T14:03:30;29.50;99.90
42617;DHT22;28250;52.320;0.360;2022-08-01T14:05:57;29.10;99.90
42617;DHT22;28250;52.320;0.360;2022-08-01T14:08:25;28.50;99.90
42617;DHT22;28250;52.320;0.360;2022-08-01T14:10:52;27.90;99.90
42617;DHT22;28250;52.320;0.360;2022-08-01T14:13:19;27.70;99.90
42617;DHT22;28250;52.320;0.360;2022-08-01T14:15:46;28.10;99.90
42617;DHT22;28250;52.320;0.360;2022-08-01T14:18:13;27.80;99.90
42617;DHT22;28250;52.320;0.360;2022-08-01T14:20:40;28.80;99.90
42617;DHT22;28250;52.320;0.360;2022-08-01T14:23:08;28.60;99.90
42617;DHT22;28250;52.320;0.360;2022-08-01T14:25:42;28.30;99.90
42617;DHT22;28250;52.320;0.360;2022-08-01T14:28:09;28.50;99.90
42617;DHT22;28250;52.320;0.360;2022-08-01T14:30:36;29.20;99.90
42617;DHT22;28250;52.320;0.360;2022-08-01T14:33:03;28.70;99.90
42617;DHT22;28250;52.320;0.360;2022-08-01T14:35:30;28.50;99.90
42617;DHT22;28250;52.320;0.360;2022-08-01T14:37:57;28.10;99.90
42617;DHT22;28250;52.320;0.360;2022-08-01T14:40:23;28.20;99.90
42617;DHT22;28250;52.320;0.360;2022-08-01T14:42:50;27.70;99.90
42617;DHT22;28250;52.320;0.360;2022-08-01T14:45:16;27.60;99.90
42617;DHT22;28250;52.320;0.360;2022-08-01T14:47:42;28.50;99.90
42617;DHT22;28250;52.320;0.360;2022-08-01T14:50:10;28.90;99.90
42617;DHT22;28250;52.320;0.360;2022-08-01T14:52:38;29.20;99.90
42617;DHT22;28250;52.320;0.360;2022-08-01T14:55:07;29.00;99.90
42617;DHT22;28250;52.320;0.360;2022-08-01T14:57:34;29.80;99.90
42617;DHT22;28250;52.320;0.360;2022-08-01T15:00:03;29.80;99.90
42617;DHT22;28250;52.320;0.360;2022-08-01T15:02:30;29.40;99.90
42617;DHT22;28250;52.320;0.360;2022-08-01T15:04:57;28.90;99.90
42617;DHT22;28250;52.320;0.360;2022-08-01T15:07:23;28.60;99.90
42617;DHT22;28250;52.320;0.360;2022-08-01T15:09:50;28.30;99.90
42617;DHT22;28250;52.320;0.360;2022-08-01T15:12:17;28.10;99.90
42617;DHT22;28250;52.320;0.360;2022-08-01T15:14:43;27.90;99.90
42617;DHT22;28250;52.320;0.360;2022-08-01T15:17:29;27.80;99.90
42617;DHT22;28250;52.320;0.360;2022-08-01T15:19:58;28.30;99.90
42617;DHT22;28250;52.320;0.360;2022-08-01T15:22:27;28.70;99.90
42617;DHT22;28250;52.320;0.360;2022-08-01T15:24:54;28.70;99.90
42617;DHT22;28250;52.320;0.360;2022-08-01T15:27:21;28.30;99.90
42617;DHT22;28250;52.320;0.360;2022-08-01T15:29:48;28.60;99.90
42617;DHT22;28250;52.320;0.360;2022-08-01T15:32:14;28.80;99.90
42617;DHT22;28250;52.320;0.360;2022-08-01T15:34:41;28.40;99.90
42617;DHT22;28250;52.320;0.360;2022-08-01T15:37:08;28.00;99.90
42617;DHT22;28250;52.320;0.360;2022-08-01T15:39:35;27.90;99.90
42617;DHT22;28250;52.320;0.360;2022-08-01T15:42:04;27.90;99.90
42617;DHT22;28250;52.320;0.360;2022-08-01T15:44:32;27.70;99.90
42617;DHT22;28250;52.320;0.360;2022-08-01T15:46:59;27.80;99.90
42617;DHT22;28250;52.320;0.360;2022-08-01T15:49:26;27.90;99.90
42617;DHT22;28250;52.320;0.360;2022-08-01T15:51:53;27.90;99.90
42617;DHT22;28250;52.320;0.360;2022-08-01T15:54:19;28.00;99.90
42617;DHT22;28250;52.320;0.360;2022-08-01T15:56:46;27.90;99.90
42617;DHT22;28250;52.320;0.360;2022-08-01T15:59:12;27.80;99.90
42617;DHT22;28250;52.320;0.360;2022-08-01T16:01:39;27.90;99.90
42617;DHT22;28250;52.320;0.360;2022-08-01T16:04:06;27.90;99.90
42617;DHT22;28250;52.320;0.360;2022-08-01T16:06:33;28.40;99.90
42617;DHT22;28250;52.320;0.360;2022-08-01T16:09:00;28.30;99.90
42617;DHT22;28250;52.320;0.360;2022-08-01T16:11:26;28.20;99.90
42617;DHT22;28250;52.320;0.360;2022-08-01T16:13:53;27.60;99.90
42617;DHT22;28250;52.320;0.360;2022-08-01T16:16:19;27.40;99.90
42617;DHT22;28250;52.320;0.360;2022-08-01T16:18:46;27.90;99.90
42617;DHT22;28250;52.320;0.360;2022-08-01T16:21:13;28.30;99.90
42617;DHT22;28250;52.320;0.360;2022-08-01T16:23:39;27.90;99.90
42617;DHT22;28250;52.320;0.360;2022-08-01T16:26:07;27.70;99.90
42617;DHT22;28250;52.320;0.360;2022-08-01T16:28:33;27.60;99.90
42617;DHT22;28250;52.320;0.360;2022-08-01T16:31:00;27.30;99.90
42617;DHT22;28250;52.320;0.360;2022-08-01T16:33:27;27.30;99.90